createdAt,value
2022-07-29T00:00:07.354Z,99.90
2022-07-29T00:02:36.408Z,99.90
2022-07-29T00:05:06.587Z,99.90
2022-07-29T00:07:35.039Z,99.90
2022-07-29T00:10:07.577Z,99.90
2022-07-29T00:12:36.822Z,99.90
2022-07-29T00:15:08.172Z,99.90
2022-07-29T00:17:36.544Z,99.90
2022-07-29T00:20:06.617Z,99.90
2022-07-29T00:22:39.600Z,99.90
2022-07-29T00:25:09.330Z,99.90
2022-07-29T00:27:38.599Z,99.90
2022-07-29T00:30:10.358Z,99.90
2022-07-29T00:32:38.833Z,99.90
2022-07-29T00:35:26.478Z,99.90
2022-07-29T00:37:54.838Z,99.90
2022-07-29T00:40:23.806Z,99.90
2022-07-29T00:42:54.716Z,99.90
2022-07-29T00:45:24.568Z,99.90
2022-07-29T00:47:53.206Z,99.90
2022-07-29T00:50:22.045Z,99.90
2022-07-29T00:52:50.520Z,99.90
2022-07-29T00:55:19.586Z,99.90
2022-07-29T00:57:49.741Z,99.90
2022-07-29T01:00:25.933Z,99.90
2022-07-29T01:02:54.725Z,99.90
2022-07-29T01:05:25.521Z,99.90
2022-07-29T01:08:17.410Z,99.90
2022-07-29T01:10:48.255Z,99.90
2022-07-29T01:13:18.975Z,99.90
2022-07-29T01:15:55.234Z,99.90
2022-07-29T01:18:31.221Z,99.90
2022-07-29T01:21:24.151Z,99.90
2022-07-29T01:24:14.640Z,99.90
2022-07-29T01:26:51.847Z,99.90
2022-07-29T01:29:30.386Z,99.90
2022-07-29T01:32:27.802Z,99.90
2022-07-29T01:35:02.331Z,99.90
2022-07-29T01:37:40.808Z,99.90
2022-07-29T01:40:26.400Z,99.90
2022-07-29T01:42:58.651Z,99.90
2022-07-29T01:45:34.367Z,99.90
2022-07-29T01:48:08.282Z,99.90
2022-07-29T01:50:42.635Z,99.90
2022-07-29T01:53:13.066Z,99.90
2022-07-29T01:55:47.029Z,99.90
2022-07-29T01:58:16.647Z,99.90
2022-07-29T02:01:00.660Z,99.90
2022-07-29T02:03:30.275Z,99.90
2022-07-29T02:06:00.729Z,99.90
2022-07-29T02:08:30.505Z,99.90
2022-07-29T02:11:00.506Z,99.90
2022-07-29T02:13:31.766Z,99.90
2022-07-29T02:16:03.078Z,99.90
2022-07-29T02:18:33.328Z,99.90
2022-07-29T02:21:03.550Z,99.90
2022-07-29T02:23:51.201Z,99.90
2022-07-29T02:26:22.154Z,99.90
2022-07-29T02:28:52.590Z,99.90
2022-07-29T02:31:27.694Z,99.90
2022-07-29T02:33:57.079Z,99.90
2022-07-29T02:36:27.229Z,99.90
2022-07-29T02:38:58.714Z,99.90
2022-07-29T02:41:33.002Z,99.90
2022-07-29T02:44:09.244Z,99.90
2022-07-29T02:46:45.116Z,99.90
2022-07-29T02:49:21.136Z,99.90
2022-07-29T02:51:56.366Z,99.90
2022-07-29T02:54:34.235Z,99.90
2022-07-29T02:57:13.175Z,99.90
2022-07-29T02:59:44.775Z,99.90
2022-07-29T03:02:17.377Z,99.90
2022-07-29T03:04:48.032Z,99.90
2022-07-29T03:07:20.551Z,99.90
2022-07-29T03:09:49.652Z,99.90
2022-07-29T03:12:19.286Z,99.90
2022-07-29T03:14:48.511Z,99.90
2022-07-29T03:17:18.752Z,99.90
2022-07-29T03:19:47.407Z,99.90
2022-07-29T03:22:17.353Z,99.90
2022-07-29T03:24:47.811Z,99.90
2022-07-29T03:27:16.446Z,99.90
2022-07-29T03:29:49.688Z,99.90
2022-07-29T03:32:25.130Z,99.90
2022-07-29T03:34:54.159Z,99.90
2022-07-29T03:37:22.658Z,99.90
2022-07-29T03:39:55.057Z,99.90
2022-07-29T03:42:33.861Z,99.90
2022-07-29T03:45:08.876Z,99.90
2022-07-29T03:47:50.600Z,99.90
2022-07-29T03:50:22.378Z,99.90
2022-07-29T03:52:52.158Z,99.90
2022-07-29T03:55:20.600Z,99.90
2022-07-29T03:57:50.329Z,99.90
2022-07-29T04:00:20.461Z,99.90
2022-07-29T04:02:53.667Z,99.90
2022-07-29T04:05:22.439Z,99.90
2022-07-29T04:07:51.263Z,99.90
2022-07-29T04:10:30.411Z,99.90
2022-07-29T04:13:01.153Z,99.90
2022-07-29T04:15:30.908Z,99.90
2022-07-29T04:18:02.143Z,99.90
2022-07-29T04:20:31.020Z,99.90
2022-07-29T04:23:03.793Z,99.90
2022-07-29T04:25:32.263Z,99.90
2022-07-29T04:28:03.231Z,99.90
2022-07-29T04:30:33.343Z,99.90
2022-07-29T04:33:04.549Z,99.90
2022-07-29T04:35:38.446Z,99.90
2022-07-29T04:38:15.885Z,99.90
2022-07-29T04:40:46.835Z,99.90
2022-07-29T04:43:17.147Z,99.90
2022-07-29T04:45:51.509Z,99.90
2022-07-29T04:48:28.235Z,99.90
2022-07-29T04:50:57.546Z,99.90
2022-07-29T04:53:25.990Z,99.90
2022-07-29T04:55:55.908Z,99.90
2022-07-29T04:58:25.145Z,99.90
2022-07-29T05:00:55.131Z,99.90
2022-07-29T05:03:26.095Z,99.90
2022-07-29T05:05:55.098Z,99.90
2022-07-29T05:08:23.496Z,99.90
2022-07-29T05:10:51.917Z,99.90
2022-07-29T05:13:20.356Z,99.90
2022-07-29T05:15:48.898Z,99.90
2022-07-29T05:18:17.770Z,99.90
2022-07-29T05:20:47.735Z,99.90
2022-07-29T05:23:17.869Z,99.90
2022-07-29T05:25:47.224Z,99.90
2022-07-29T05:28:17.026Z,99.90
2022-07-29T05:30:45.898Z,99.90
2022-07-29T05:33:35.733Z,99.90
2022-07-29T05:36:14.146Z,99.90
2022-07-29T05:38:43.174Z,99.90
2022-07-29T05:41:11.847Z,99.90
2022-07-29T05:43:40.310Z,99.90
2022-07-29T05:46:09.087Z,99.90
2022-07-29T05:48:39.862Z,99.90
2022-07-29T05:51:10.376Z,99.90
2022-07-29T05:53:38.782Z,99.90
2022-07-29T05:56:08.349Z,99.90
2022-07-29T05:58:37.250Z,99.90
2022-07-29T06:01:07.486Z,99.90
2022-07-29T06:03:38.880Z,99.90
2022-07-29T06:06:14.979Z,99.90
2022-07-29T06:08:43.574Z,99.90
2022-07-29T06:11:12.116Z,99.90
2022-07-29T06:13:45.571Z,99.90
2022-07-29T06:16:15.878Z,99.90
2022-07-29T06:18:59.666Z,99.90
2022-07-29T06:21:29.498Z,99.90
2022-07-29T06:23:57.913Z,99.90
2022-07-29T06:26:31.334Z,99.90
2022-07-29T06:29:01.054Z,99.90
2022-07-29T06:31:29.663Z,99.90
2022-07-29T06:33:58.160Z,99.90
2022-07-29T06:36:29.208Z,99.90
2022-07-29T06:38:57.743Z,99.90
2022-07-29T06:41:27.070Z,99.90
2022-07-29T06:43:56.897Z,99.90
2022-07-29T06:46:25.585Z,99.90
2022-07-29T06:48:54.457Z,99.90
2022-07-29T06:51:24.383Z,99.90
2022-07-29T06:54:00.348Z,99.90
2022-07-29T06:56:38.429Z,99.90
2022-07-29T06:59:08.035Z,99.90
2022-07-29T07:01:43.365Z,99.90
2022-07-29T07:04:14.574Z,99.90
2022-07-29T07:06:43.763Z,99.90
2022-07-29T07:09:13.530Z,99.90
2022-07-29T07:11:42.048Z,99.90
2022-07-29T07:14:13.383Z,99.90
2022-07-29T07:16:42.122Z,99.90
2022-07-29T07:19:10.722Z,99.90
2022-07-29T07:21:39.140Z,99.90
2022-07-29T07:24:08.834Z,99.90
2022-07-29T07:26:40.401Z,99.90
2022-07-29T07:29:09.039Z,99.90
2022-07-29T07:31:38.914Z,99.90
2022-07-29T07:34:07.517Z,99.90
2022-07-29T07:36:36.053Z,99.90
2022-07-29T07:39:06.165Z,99.90
2022-07-29T07:41:34.599Z,99.90
2022-07-29T07:44:04.577Z,99.90
2022-07-29T07:46:33.301Z,99.90
2022-07-29T07:49:01.879Z,99.90
2022-07-29T07:51:30.359Z,99.90
2022-07-29T07:53:59.081Z,99.90
2022-07-29T07:56:33.266Z,99.90
2022-07-29T07:59:04.915Z,99.90
2022-07-29T08:01:55.056Z,99.90
2022-07-29T08:04:27.065Z,99.90
2022-07-29T08:06:57.067Z,99.90
2022-07-29T08:09:29.662Z,99.90
2022-07-29T08:12:00.000Z,99.90
2022-07-29T08:14:30.438Z,99.90
2022-07-29T08:16:59.095Z,99.90
2022-07-29T08:19:33.615Z,99.90
2022-07-29T08:22:02.084Z,99.90
2022-07-29T08:24:45.391Z,99.90
2022-07-29T08:27:40.898Z,99.90
2022-07-29T08:30:04.063Z,99.90
2022-07-29T08:32:53.230Z,99.90
2022-07-29T08:35:23.589Z,99.90
2022-07-29T08:37:52.369Z,99.90
2022-07-29T08:40:32.022Z,99.90
2022-07-29T08:43:08.657Z,99.90
2022-07-29T08:45:47.485Z,99.90
2022-07-29T08:48:18.640Z,99.90
2022-07-29T08:50:48.949Z,99.90
2022-07-29T08:53:19.851Z,99.90
2022-07-29T08:55:50.430Z,99.90
2022-07-29T08:58:22.947Z,99.90
2022-07-29T09:00:56.263Z,99.90
2022-07-29T09:03:34.775Z,99.90
2022-07-29T09:06:03.661Z,99.90
2022-07-29T09:08:34.158Z,99.90
2022-07-29T09:11:05.707Z,99.90
2022-07-29T09:13:34.326Z,99.90
2022-07-29T09:16:08.910Z,99.90
2022-07-29T09:18:40.092Z,99.90
2022-07-29T09:21:30.342Z,99.90
2022-07-29T09:24:08.770Z,99.90
2022-07-29T09:26:40.788Z,99.90
2022-07-29T09:29:15.309Z,99.90
2022-07-29T09:31:47.063Z,99.90
2022-07-29T09:34:19.656Z,99.90
2022-07-29T09:36:51.064Z,99.90
2022-07-29T09:39:31.667Z,99.90
2022-07-29T09:42:04.350Z,99.90
2022-07-29T09:44:45.449Z,99.90
2022-07-29T09:47:15.385Z,99.90
2022-07-29T09:49:56.301Z,99.90
2022-07-29T09:52:25.563Z,99.90
2022-07-29T09:54:55.001Z,99.90
2022-07-29T09:57:31.409Z,99.90
2022-07-29T10:00:02.838Z,99.90
2022-07-29T10:02:36.710Z,99.90
2022-07-29T10:05:08.090Z,99.90
2022-07-29T10:07:53.188Z,99.90
2022-07-29T10:10:26.074Z,99.90
2022-07-29T10:12:57.527Z,99.90
2022-07-29T10:15:30.643Z,99.90
2022-07-29T10:18:03.310Z,99.90
2022-07-29T10:20:31.707Z,99.90
2022-07-29T10:23:00.250Z,99.90
2022-07-29T10:25:30.929Z,99.90
2022-07-29T10:27:59.444Z,99.90
2022-07-29T10:30:28.888Z,99.90
2022-07-29T10:33:19.255Z,99.90
2022-07-29T10:36:09.447Z,99.90
2022-07-29T10:38:55.823Z,99.90
2022-07-29T10:42:29.832Z,99.90
2022-07-29T10:45:04.381Z,99.90
2022-07-29T10:47:35.333Z,99.90
2022-07-29T10:50:09.027Z,99.90
2022-07-29T10:52:58.756Z,99.90
2022-07-29T10:55:35.756Z,99.90
2022-07-29T10:58:18.928Z,99.90
2022-07-29T11:00:49.853Z,99.90
2022-07-29T11:03:50.329Z,99.90
2022-07-29T11:06:26.436Z,99.90
2022-07-29T11:09:35.078Z,99.90
2022-07-29T11:12:06.914Z,99.90
2022-07-29T11:14:59.986Z,99.90
2022-07-29T11:17:46.881Z,99.90
2022-07-29T11:20:42.399Z,99.90
2022-07-29T11:23:33.753Z,99.90
2022-07-29T11:26:23.967Z,99.90
2022-07-29T11:29:03.746Z,99.90
2022-07-29T11:31:39.047Z,99.90
2022-07-29T11:34:28.022Z,99.90
2022-07-29T11:37:28.067Z,99.80
2022-07-29T11:40:20.228Z,99.00
2022-07-29T11:42:53.174Z,99.90
2022-07-29T11:45:42.916Z,99.90
2022-07-29T11:48:31.949Z,99.90
2022-07-29T11:51:03.091Z,97.70
2022-07-29T11:53:32.697Z,99.10
2022-07-29T11:56:10.574Z,98.00
2022-07-29T11:58:44.786Z,97.30
2022-07-29T12:01:22.362Z,95.10
2022-07-29T12:04:04.741Z,98.10
2022-07-29T12:06:35.444Z,99.10
2022-07-29T12:09:11.234Z,94.70
2022-07-29T12:11:47.364Z,95.70
2022-07-29T12:14:30.554Z,96.40
2022-07-29T12:17:00.278Z,97.90
2022-07-29T12:19:29.181Z,96.70
2022-07-29T12:22:02.355Z,96.20
2022-07-29T12:24:45.660Z,99.00
2022-07-29T12:27:29.195Z,98.90
2022-07-29T12:30:00.665Z,99.90
2022-07-29T12:32:35.862Z,99.90
2022-07-29T12:35:07.471Z,99.90
2022-07-29T12:37:40.971Z,99.60
2022-07-29T12:40:14.875Z,99.60
2022-07-29T12:43:08.057Z,99.50
2022-07-29T12:45:37.983Z,99.90
2022-07-29T12:48:09.471Z,99.90
2022-07-29T12:50:39.772Z,99.90
2022-07-29T12:53:13.482Z,99.90
2022-07-29T12:55:49.813Z,99.90
2022-07-29T12:58:32.459Z,99.90
2022-07-29T13:01:17.269Z,99.90
2022-07-29T13:03:57.662Z,99.90
2022-07-29T13:06:35.872Z,99.90
2022-07-29T13:09:09.147Z,99.90
2022-07-29T13:11:44.040Z,99.90
2022-07-29T13:14:34.620Z,99.90
2022-07-29T13:17:07.389Z,99.90
2022-07-29T13:19:46.369Z,99.90
2022-07-29T13:22:22.626Z,99.90
2022-07-29T13:24:53.361Z,99.90
2022-07-29T13:27:23.895Z,99.90
2022-07-29T13:29:55.452Z,99.90
2022-07-29T13:32:28.590Z,99.90
2022-07-29T13:34:58.891Z,99.90
2022-07-29T13:37:30.544Z,99.90
2022-07-29T13:40:00.241Z,99.90
2022-07-29T13:42:29.134Z,99.90
2022-07-29T13:44:58.971Z,99.90
2022-07-29T13:47:32.332Z,99.90
2022-07-29T13:50:02.185Z,99.90
2022-07-29T13:52:31.136Z,99.90
2022-07-29T13:54:59.601Z,99.90
2022-07-29T13:57:28.167Z,99.90
2022-07-29T13:59:58.161Z,99.90
2022-07-29T14:02:26.574Z,99.90
2022-07-29T14:04:55.556Z,99.90
2022-07-29T14:07:25.024Z,99.90
2022-07-29T14:09:53.582Z,99.90
2022-07-29T14:12:22.149Z,99.90
2022-07-29T14:14:50.605Z,99.90
2022-07-29T14:17:20.560Z,99.90
2022-07-29T14:19:49.379Z,99.90
2022-07-29T14:22:19.893Z,99.90
2022-07-29T14:24:51.527Z,99.90
2022-07-29T14:27:19.968Z,99.90
2022-07-29T14:30:08.203Z,99.90
2022-07-29T14:32:38.526Z,99.90
2022-07-29T14:35:08.848Z,99.90
2022-07-29T14:37:40.308Z,99.90
2022-07-29T14:40:10.767Z,99.90
2022-07-29T14:42:39.878Z,99.90
2022-07-29T14:45:10.755Z,99.90
2022-07-29T14:47:41.402Z,99.90
2022-07-29T14:50:11.237Z,99.90
2022-07-29T14:52:39.745Z,99.90
2022-07-29T14:55:19.859Z,99.90
2022-07-29T14:57:50.875Z,99.90
2022-07-29T15:00:20.418Z,99.90
2022-07-29T15:03:01.803Z,99.90
2022-07-29T15:05:30.738Z,99.90
2022-07-29T15:07:59.751Z,99.90
2022-07-29T15:10:28.326Z,99.90
2022-07-29T15:12:59.214Z,99.90
2022-07-29T15:15:27.909Z,99.90
2022-07-29T15:17:57.705Z,99.90
2022-07-29T15:20:28.109Z,99.90
2022-07-29T15:22:56.882Z,99.90
2022-07-29T15:25:25.626Z,99.90
2022-07-29T15:28:01.298Z,99.90
2022-07-29T15:30:33.923Z,99.90
2022-07-29T15:33:05.095Z,99.90
2022-07-29T15:35:40.626Z,99.90
2022-07-29T15:38:09.719Z,99.90
2022-07-29T15:40:41.388Z,99.90
2022-07-29T15:43:09.771Z,99.90
2022-07-29T15:45:40.324Z,99.90
2022-07-29T15:48:14.708Z,99.90
2022-07-29T15:50:46.916Z,99.90
2022-07-29T15:53:15.931Z,99.90
2022-07-29T15:55:44.691Z,99.90
2022-07-29T15:58:13.425Z,99.90
2022-07-29T16:00:49.891Z,99.90
2022-07-29T16:03:19.703Z,99.90
2022-07-29T16:05:48.295Z,99.90
2022-07-29T16:08:16.775Z,99.90
2022-07-29T16:10:45.180Z,99.90
2022-07-29T16:13:17.082Z,99.90
2022-07-29T16:16:02.279Z,99.90
2022-07-29T16:18:32.810Z,99.90
2022-07-29T16:21:01.283Z,99.90
2022-07-29T16:23:29.861Z,99.90
2022-07-29T16:26:00.053Z,99.90
2022-07-29T16:28:29.217Z,99.90
2022-07-29T16:30:58.162Z,99.90
2022-07-29T16:33:28.353Z,99.90
2022-07-29T16:36:18.781Z,99.90
2022-07-29T16:38:47.942Z,99.90
2022-07-29T16:41:16.768Z,99.90
2022-07-29T16:43:45.236Z,99.90
2022-07-29T16:46:18.946Z,99.90
2022-07-29T16:48:48.562Z,99.90
2022-07-29T16:51:19.244Z,99.90
2022-07-29T16:53:50.288Z,99.90
2022-07-29T16:56:19.482Z,99.90
2022-07-29T16:58:47.920Z,99.90
2022-07-29T17:01:17.126Z,99.90
2022-07-29T17:04:00.521Z,99.90
2022-07-29T17:06:32.653Z,99.90
2022-07-29T17:09:01.152Z,99.90
2022-07-29T17:11:52.580Z,99.90
2022-07-29T17:14:17.934Z,99.90
2022-07-29T17:17:00.044Z,99.90
2022-07-29T17:19:30.571Z,99.90
2022-07-29T17:22:09.482Z,99.90
2022-07-29T17:24:41.390Z,99.90
2022-07-29T17:27:10.280Z,99.90
2022-07-29T17:29:39.041Z,99.90
2022-07-29T17:32:09.231Z,99.90
2022-07-29T17:34:38.017Z,99.90
2022-07-29T17:37:10.695Z,99.90
2022-07-29T17:39:41.174Z,99.90
2022-07-29T17:42:11.264Z,99.90
2022-07-29T17:44:40.368Z,99.90
2022-07-29T17:47:10.738Z,99.90
2022-07-29T17:49:45.844Z,99.90
2022-07-29T17:52:17.922Z,99.90
2022-07-29T17:54:48.563Z,99.90
2022-07-29T17:57:17.059Z,99.90
2022-07-29T17:59:45.480Z,99.90
2022-07-29T18:02:14.495Z,99.90
2022-07-29T18:04:43.023Z,99.90
2022-07-29T18:07:11.807Z,99.90
2022-07-29T18:09:41.668Z,99.90
2022-07-29T18:12:11.491Z,99.90
2022-07-29T18:14:40.342Z,99.90
2022-07-29T18:17:08.850Z,99.90
2022-07-29T18:19:37.250Z,99.90
2022-07-29T18:22:07.401Z,99.90
2022-07-29T18:24:35.849Z,99.90
2022-07-29T18:27:05.719Z,99.90
2022-07-29T18:29:34.681Z,99.90
2022-07-29T18:32:03.366Z,99.90
2022-07-29T18:34:31.974Z,99.90
2022-07-29T18:37:00.820Z,99.90
2022-07-29T18:39:29.715Z,99.90
2022-07-29T18:41:58.172Z,99.90
2022-07-29T18:44:27.935Z,99.90
2022-07-29T18:46:57.078Z,99.90
2022-07-29T18:49:27.569Z,99.90
2022-07-29T18:51:56.875Z,99.90
2022-07-29T18:54:25.688Z,99.90
2022-07-29T18:56:54.179Z,99.90
2022-07-29T18:59:22.637Z,99.90
2022-07-29T19:01:52.694Z,99.90
2022-07-29T19:04:21.149Z,99.90
2022-07-29T19:06:49.747Z,99.90
2022-07-29T19:09:18.537Z,99.90
2022-07-29T19:11:47.031Z,99.90
2022-07-29T19:14:15.481Z,99.90
2022-07-29T19:16:43.998Z,99.90
2022-07-29T19:19:14.557Z,99.90
2022-07-29T19:21:43.076Z,99.90
2022-07-29T19:24:15.446Z,99.90
2022-07-29T19:26:46.862Z,99.90
2022-07-29T19:29:16.169Z,99.90
2022-07-29T19:31:44.988Z,99.90
2022-07-29T19:34:14.997Z,99.90
2022-07-29T19:36:43.439Z,99.90
2022-07-29T19:39:12.274Z,99.90
2022-07-29T19:41:40.666Z,99.90
2022-07-29T19:44:09.039Z,99.90
2022-07-29T19:46:37.501Z,99.90
2022-07-29T19:49:07.092Z,99.90
2022-07-29T19:51:37.176Z,99.90
2022-07-29T19:54:06.390Z,99.90
2022-07-29T19:56:34.844Z,99.90
2022-07-29T19:59:07.471Z,99.90
2022-07-29T20:01:36.015Z,99.90
2022-07-29T20:04:04.754Z,99.90
2022-07-29T20:06:33.135Z,99.90
2022-07-29T20:09:03.130Z,99.90
2022-07-29T20:11:32.285Z,99.90
2022-07-29T20:14:02.375Z,99.90
2022-07-29T20:16:30.971Z,99.90
2022-07-29T20:18:59.868Z,99.90
2022-07-29T20:21:28.640Z,99.90
2022-07-29T20:24:00.372Z,99.90
2022-07-29T20:26:30.448Z,99.90
2022-07-29T20:29:00.354Z,99.90
2022-07-29T20:31:30.497Z,99.90
2022-07-29T20:33:59.285Z,99.90
2022-07-29T20:36:28.202Z,99.90
2022-07-29T20:38:56.632Z,99.90
2022-07-29T20:41:25.018Z,99.90
2022-07-29T20:43:54.911Z,99.90
2022-07-29T20:46:23.790Z,99.90
2022-07-29T20:48:53.909Z,99.90
2022-07-29T20:51:22.847Z,99.90
2022-07-29T20:53:51.323Z,99.90
2022-07-29T20:56:19.935Z,99.90
2022-07-29T20:58:48.661Z,99.90
2022-07-29T21:01:18.791Z,99.90
2022-07-29T21:03:47.184Z,99.90
2022-07-29T21:06:15.959Z,99.90
2022-07-29T21:08:44.397Z,99.90
2022-07-29T21:11:14.039Z,99.90
2022-07-29T21:13:44.935Z,99.90
2022-07-29T21:16:14.932Z,99.90
2022-07-29T21:18:46.450Z,99.90
2022-07-29T21:21:16.211Z,99.90
2022-07-29T21:23:45.982Z,99.90
2022-07-29T21:26:14.486Z,99.90
2022-07-29T21:28:41.914Z,99.90
2022-07-29T21:31:12.908Z,99.90
2022-07-29T21:33:45.401Z,99.90
2022-07-29T21:36:46.451Z,99.90
2022-07-29T21:39:07.048Z,99.90
2022-07-29T21:41:36.455Z,99.90
2022-07-29T21:44:04.981Z,99.90
2022-07-29T21:46:33.612Z,99.90
2022-07-29T21:49:03.552Z,99.90
2022-07-29T21:51:32.097Z,99.90
2022-07-29T21:54:00.520Z,99.90
2022-07-29T21:56:30.606Z,99.90
2022-07-29T21:59:00.069Z,99.90
2022-07-29T22:01:28.608Z,99.90
2022-07-29T22:04:09.965Z,99.90
2022-07-29T22:06:38.469Z,99.90
2022-07-29T22:09:07.151Z,99.90
2022-07-29T22:11:36.961Z,99.90
2022-07-29T22:14:08.852Z,99.90
2022-07-29T22:16:38.034Z,99.90
2022-07-29T22:19:06.526Z,99.90
2022-07-29T22:21:36.463Z,99.90
2022-07-29T22:24:05.378Z,99.90
2022-07-29T22:26:34.037Z,99.90
2022-07-29T22:29:02.855Z,99.90
2022-07-29T22:31:31.721Z,99.90
2022-07-29T22:34:00.392Z,99.90
2022-07-29T22:36:29.188Z,99.90
2022-07-29T22:39:10.561Z,99.90
2022-07-29T22:41:47.774Z,99.90
2022-07-29T22:44:16.358Z,99.90
2022-07-29T22:46:45.226Z,99.90
2022-07-29T22:49:14.278Z,99.90
2022-07-29T22:51:43.011Z,99.90
2022-07-29T22:54:12.769Z,99.90
2022-07-29T22:56:41.232Z,99.90
2022-07-29T22:59:09.629Z,99.90
2022-07-29T23:01:38.350Z,99.90
2022-07-29T23:04:07.286Z,99.90
2022-07-29T23:06:36.019Z,99.90
2022-07-29T23:09:04.912Z,99.90
2022-07-29T23:11:34.700Z,99.90
2022-07-29T23:14:03.117Z,99.90
2022-07-29T23:16:31.924Z,99.90
2022-07-29T23:19:01.828Z,99.90
2022-07-29T23:21:30.431Z,99.90
2022-07-29T23:23:59.030Z,99.90
2022-07-29T23:26:28.147Z,99.90
2022-07-29T23:28:58.343Z,99.90
2022-07-29T23:31:26.696Z,99.90
2022-07-29T23:33:55.042Z,99.90
2022-07-29T23:36:23.546Z,99.90
2022-07-29T23:38:51.935Z,99.90
2022-07-29T23:41:22.468Z,99.90
2022-07-29T23:43:51.535Z,99.90
2022-07-29T23:46:23.866Z,99.90
2022-07-29T23:48:52.812Z,99.90
2022-07-29T23:51:24.500Z,99.90
2022-07-29T23:53:54.342Z,99.90
2022-07-29T23:56:23.049Z,99.90
2022-07-29T23:58:51.597Z,99.90
